Reno (UNR), Valley Road, Nevada Weather observations

Data are for observation ending at time listed.
 Day   Time    Ave.   Ave.  Ave.  Vector   Max.    Total    Solar   Rl      Baro.   Ave.  
  of    of     Air    Rel.  Wind   Wind    Wind   Precip.   Rad.    in      Pres.   Soil  
Year   Day     Temp.  Hum.  Speed  Dir.    Gust                                     Temp. 
2014   (PST)    F      %     mph   deg.    mph      in.     W/m2    W/m2     mb.     F   
-----------------------------------------------------------------------------------------
 105   19:40   62.0    30    5.7   355      9.7     0.00       0     332    852.8   64.3
 105   19:50   61.0    31    4.0   352      7.0     0.00       0     330    853.0   64.1
 105   20:00   61.4    31    6.5     6     12.0     0.00       0     330    853.2   64.0
 105   20:10   61.2    31    4.3   345      9.6     0.00       0     336    853.2   63.9
 105   20:20   61.5    31    5.6   349     10.1     0.00       0     338    853.4   63.8
 105   20:30   60.8    32    6.1     1     11.9     0.00       0     335    853.5   63.7
 105   20:40   60.2    33    7.0     3     13.7     0.00       0     335    853.6   63.6
 105   20:50   59.8    34    5.5   352     12.0     0.00       0     326    853.7   63.5
 105   21:00   59.3    35    5.9   335      9.0     0.00       0     325    853.9   63.4
 105   21:10   58.8    36    5.4   330      8.5     0.00       0     329    854.0   63.3
 105   21:20   59.1    36    4.9   333      7.8     0.00       0     332    854.1   63.2
 105   21:30   59.1    37    7.1   339     10.9     0.00       0     331    854.0   63.0
 105   21:40   58.5    38    6.6   348     10.8     0.00       0     337    854.0   62.9
 105   21:50   58.0    39    5.5   344      8.2     0.00       0     345    854.1   62.8
 105   22:00   57.7    39    2.7   341      5.4     0.00       0     343    854.1   62.7
 105   22:10   57.5    40    4.1    20      6.4     0.00       0     345    854.1   62.6
 105   22:20   56.7    41    4.2     8      6.7     0.00       0     346    854.0   62.5
 105   22:30   57.3    40    5.3     4      8.4     0.00       0     337    854.0   62.4
 105   22:40   57.3    40    5.4    10      7.5     0.00       0     330    854.0   62.3
 105   22:50   56.7    42    5.2     7      7.6     0.00       0     325    854.1   62.2
 105   23:00   56.4    42    5.3   348      8.1     0.00       0     329    854.1   62.1
 105   23:10   56.4    42    5.3   334      8.6     0.00       0     328    854.2   62.0
 105   23:20   56.4    41    6.4   335      9.3     0.00       0     317    854.4   61.9
 105   23:30   56.3    41    6.6   338     10.3     0.00       0     313    854.5   61.8
 105   23:40   55.4    42    4.8     5      8.8     0.00       0     311    854.7   61.7
 105   23:50   54.6    40    2.7     9      5.4     0.00       0     307    854.7   61.6
 106    0:00   54.2    38    2.5   337      5.6     0.00       0     306    854.7   61.6
 106    0:10   53.7    40    2.8    14      5.3     0.00       0     308    854.8   61.5
 106    0:20   53.0    44    4.3   323      6.3     0.00       0     306    855.0   61.4
 106    0:30   53.0    46    4.5   319      7.3     0.00       0     301    855.0   61.3
 106    0:40   52.7    48    3.8   322      6.0     0.00       0     303    855.0   61.2
 106    0:50   52.6    48    5.5   319      8.6     0.00       0     307    854.9   61.1
 106    1:00   52.4    48    4.3   316      6.5     0.00       0     309    854.8   61.0
 106    1:10   52.5    43    5.6   332      8.8     0.00       0     321    854.8   60.9
 106    1:20   53.0    36    5.7   337      9.6     0.00       0     314    854.9   60.8
 106    1:30   53.2    32    5.1   335      8.2     0.00       0     303    854.9   60.7
 106    1:40   52.9    34    6.4   326     11.2     0.00       0     301    855.0   60.6
 106    1:50   52.6    37    7.7   325     12.8     0.00       0     301    855.0   60.5
 106    2:00   52.1    36    8.2   327     12.6     0.00       0     299    855.1   60.4
 106    2:10   51.6    36    8.3   329     13.2     0.00       0     300    855.2   60.3
 106    2:20   51.4    34    5.1   307     10.1     0.00       0     301    855.3   60.2
 106    2:30   51.3    33    3.6   279      7.0     0.00       0     295    855.3   60.1
 106    2:40   50.7    33    1.9   201      4.2     0.00       0     294    855.3   60.0
 106    2:50   50.7    33    4.2   230      7.2     0.00       0     291    855.3   59.9
 106    3:00   51.0    34    2.8   299      5.4     0.00       0     292    855.4   59.8
 106    3:10   49.4    37    0.9   127      2.3     0.00       0     295    855.4   59.7
 106    3:20   47.7    42    2.5   324      3.9     0.00       0     291    855.4   59.6
 106    3:30   46.9    44    1.7   315      2.6     0.00       0     288    855.5   59.5
 106    3:40   45.9    47    1.7   324      2.7     0.00       0     289    855.7   59.4
 106    3:50   45.7    46    1.8   318      4.1     0.00       0     289    855.8   59.3
 106    4:00   45.4    50    2.0   314      3.1     0.00       0     289    855.8   59.2
 106    4:10   45.3    52    1.1   303      2.5     0.00       0     287    855.8   59.1
 106    4:20   45.4    52    2.4   345      4.6     0.00       0     282    855.8   59.0
 106    4:30   45.0    54    2.5   262      4.0     0.00       0     282    856.0   58.9
 106    4:40   45.1    57    2.5   242      5.7     0.00       0     282    856.0   58.8
 106    4:50   45.5    59    2.7   164      4.5     0.00       0     282    856.2   58.7
 106    5:00   45.9    59    3.0   241      5.0     0.00       0     282    856.2   58.6
 106    5:10   44.2    61    2.3     1      5.1     0.00       0     281    856.2   58.5
 106    5:20   43.8    62    2.6   320      3.4     0.00       2     278    856.3   58.4
 106    5:30   44.0    60    2.2   299      3.9     0.00       7     278    856.5   58.3
 106    5:40   43.6    61    0.7   357      2.6     0.00      14     278    856.6   58.2
 106    5:50   43.0    63    1.1   262      2.6     0.00      18     275    856.6   58.0
 106    6:00   44.1    64    2.4   256      4.7     0.00      48     278    856.7   57.9
 106    6:10   45.0    63    3.2   244      4.9     0.00      72     278    856.8   57.8
 106    6:20   45.9    59    3.0   232      5.1     0.00     112     280    856.8   57.7
 106    6:30   47.4    56    2.4   244      3.7     0.00     166     282    857.0   57.6
 106    6:40   49.1    49    2.6   242      3.5     0.00     204     285    857.0   57.5
 106    6:50   50.5    46    2.2   230      3.9     0.00     239     289    856.9   57.4
 106    7:00   52.8    42    2.4   163      3.9     0.00     270     291    857.0   57.3
 106    7:10   53.8    41    2.6   175      4.5     0.00     305     297    856.9   57.2
 106    7:20   54.1    40    1.8   140      3.9     0.00     339     295    856.8   57.1
 106    7:30   55.9    36    1.2    50      3.3     0.00     375     301    856.7   57.1
 106    7:40   56.9    32    2.4    65      5.6     0.00     410     304    856.5   57.0
 106    7:50   56.0    32    4.5    16     16.3     0.00     446     306    856.4   56.9
 106    8:00   56.0    31    5.3     5      9.7     0.00     483     306    856.2   56.9
 106    8:10   56.6    30    4.3   347      8.2     0.00     511     306    855.9   56.8
 106    8:20   58.5    29    3.5    80      7.2     0.00     546     311    855.7   56.8
 106    8:30   59.1    28    4.6    73     10.8     0.00     579     314    855.6   56.7
 106    8:40   59.2    28    4.7   103      9.9     0.00     607     314    855.4   56.7
 106    8:50   59.5    27    3.6    67      8.0     0.00     639     317    855.2   56.7
 106    9:00   59.2    27    5.6    14     10.5     0.00     648     320    855.0   56.7
 106    9:10   59.5    26    4.8    44     11.5     0.00     683     318    855.0   56.7
 106    9:20   60.8    25    3.0    21      7.5     0.00     722     322    855.0   56.7
 106    9:30   60.4    26    4.6    28      9.3     0.00     752     324    854.8   56.8
 106    9:40   63.4    24    3.2    94      7.1     0.00     764     327    854.6   56.8
 106    9:50   63.4    24    4.6   100      9.4     0.00     798     329    854.4   56.9
 106   10:00   63.2    24    4.2   114      9.3     0.00     798     330    854.3   56.9
 106   10:10   62.9    24    3.2    45      7.6     0.00     825     331    854.0   57.0
 106   10:20   62.8    24    4.0    29      9.0     0.00     870     334    853.8   57.1
 106   10:30   61.6    25    5.2   359     10.2     0.00     845     333    853.6   57.3
 106   10:40   64.4    23    4.3    97      9.9     0.00     901     330    853.4   57.4
 106   10:50   65.0    22    3.7   113      9.0     0.00     893     334    853.2   57.6
 106   11:00   66.1    22    5.1    58      9.0     0.00     917     338    853.0   57.9
 106   11:10   65.7    22    5.2   121      8.8     0.00     915     333    852.8   58.1
 106   11:20   65.9    22    4.0   133      9.8     0.00     936     334    852.6   58.4
 106   11:30   66.1    22    4.9   152      9.4     0.00     942     336    852.5   58.7
 106   11:40   66.7    22    3.8    15      9.3     0.00     948     340    852.3   59.1
 106   11:50   66.5    22    4.9    59      9.5     0.00     948     341    852.1   59.4
 106   12:00   66.3    22    3.5   108      9.1     0.00     953     339    852.0   59.7
 106   12:10   66.6    22    3.4    22      7.1     0.00     952     343    851.8   60.1
 106   12:20   69.0    21    5.1    97     11.0     0.00     952     342    851.6   60.4
 106   12:30   69.4    20    5.3    32     12.0     0.00     947     348    851.5   60.8
 106   12:40  99999.0   99999  99999.0   99999    99999.0    99999.00   99999   99999    99999.0   99999.0
 106   12:50   68.0    21    3.9     1     10.8     0.00     931     344    851.3   61.5
 106   13:00   68.5    21    6.1    27     12.1     0.00     928     349    851.1   61.8
 106   13:10   69.1    21    5.9   339     12.4     0.00     903     348    851.0   62.1
 106   13:20   70.5    20    4.2    47     13.9     0.00     897     350    850.9   62.4
 106   13:30   71.4    19    3.0    15      9.8     0.00     876     351    850.6   62.7
 106   13:40   69.7    20    7.2    16     14.1     0.00     874     352    850.5   62.9
 106   13:50   71.3    19    3.1    94      8.5     0.00     836     350    850.3   63.1
 106   14:00   70.9    20    7.0    23     13.2     0.00     819     355    850.1   63.3
 106   14:10   72.0    19    6.9    81     12.5     0.00     769     353    849.9   63.5
 106   14:20   71.2    19    3.9    43      8.1     0.00     752     357    849.8   63.6
 106   14:30   71.6    19    5.9   122     10.8     0.00     701     358    849.6   63.8
 106   14:40   73.0    18    5.2   114     15.2     0.00     713     354    849.4   64.0
 106   14:50   73.7    18    5.6    84     14.2     0.00     681     354    849.2   64.1
 106   15:00   73.1    18    5.8    68     13.4     0.00     714     356    849.1   64.3
 106   15:10   73.0    18    6.9    75     13.4     0.00     685     354    849.1   64.5
 106   15:20   73.6    18    6.2    67     12.9     0.00     697     357    849.0   64.6
 106   15:30   74.3    18    7.0    69     14.3     0.00     666     364    848.7   64.8
 106   15:40   72.6    18    6.6    95     12.2     0.00     395     356    848.5   64.9
 106   15:50   70.9    19    8.6    38     18.5     0.00     495     353    848.5   65.1
 106   16:00   72.3    19    7.4    76     14.1     0.00     579     360    848.6   65.2
 106   16:10   73.9    18    6.7    97     11.7     0.00     543     361    848.5   65.4
 106   16:20   72.6    19    7.8    55     14.2     0.00     342     356    848.6   65.5
 106   16:30   71.7    19    9.3    54     14.9     0.00     353     351    848.7   65.6
 106   16:40   70.1    20    8.9    36     17.1     0.00     352     345    848.8   65.7
 106   16:50   69.6    20   10.0    23     15.4     0.00     278     342    849.0   65.8
 106   17:00   68.8    21    9.6    20     14.8     0.00     193     337    849.2   65.9
 106   17:10   67.7    21    9.1    26     16.1     0.00     140     338    849.5   66.0
 106   17:20   67.5    21    9.2    26     14.3     0.00     104     335    849.7   66.0
 106   17:30   67.2    22    7.3    32     11.9     0.00     103     334    849.9   66.1
 106   17:40   67.6    22    8.8    24     13.3     0.00     195     336    850.1   66.1
 106   17:50   67.6    22    8.3    21     12.0     0.00     153     332    850.2   66.1
 106   18:00   67.2    22    6.3    26     10.3     0.00     113     327    850.3   66.1
 106   18:10   66.6    22    6.3     9     10.1     0.00      65     331    850.4   66.0
 106   18:20   65.8    23    4.9     6      9.3     0.00      34     327    850.5   66.0
 106   18:30   64.3    24    4.4   360      8.2     0.00      11     327    850.8   65.9
 106   18:40  99999.0   99999  99999.0   99999    99999.0    99999.00   99999   99999    99999.0   99999.0
 106   18:50   63.0    25    4.9     2      7.2     0.00       2     319    851.3   65.8
 106   19:00   62.5    25    4.5   356      6.7     0.00       0     319    851.5   65.7
 106   19:10   61.7    26    4.5   353      6.2     0.00       0     322    851.8   65.6
 106   19:20   61.4    26    5.2   350      7.2     0.00       0     322    852.0   65.5
 106   19:30   61.3    26    3.8   347      5.4     0.00       0     320    852.3   65.4

Return to Reno (UNR), Nevada graphs page.


Western Regional Climate Center,wrcc@dri.edu